Time;durP1;ratioP1;P1;durP2;ratioP2;P2;SDS_P1;SDS_P2;PMS_P1;PMS_P2;Temp;Humidity;BMP_temperature;BMP_pressure;BME280_temperature;BME280_humidity;BME280_pressure;Samples;Min_cycle;Max_cycle;Signal;HPM_P1;HPM_P2
2021/04/08 00:00:07;;;;;;;5.38;2.63;;;1.10;99.90;;;;;;5033200;28;20053;-84
2021/04/08 00:02:33;;;;;;;5.75;2.65;;;1.10;99.90;;;;;;5033238;28;20072;-84
2021/04/08 00:04:59;;;;;;;4.82;2.78;;;1.10;99.90;;;;;;5033586;28;20049;-84
2021/04/08 00:07:26;;;;;;;5.80;2.58;;;1.20;99.90;;;;;;5033056;28;20100;-84
2021/04/08 00:09:52;;;;;;;5.15;2.45;;;1.20;99.90;;;;;;5033911;28;20509;-84
2021/04/08 00:12:18;;;;;;;4.40;2.60;;;1.10;99.90;;;;;;5034920;28;20049;-84
2021/04/08 00:14:45;;;;;;;3.10;2.28;;;1.10;99.90;;;;;;5034156;28;20049;-84
2021/04/08 00:17:11;;;;;;;8.57;2.90;;;1.10;99.90;;;;;;5034450;28;20045;-85
2021/04/08 00:19:37;;;;;;;5.25;2.63;;;1.10;99.90;;;;;;5034348;28;20491;-84
2021/04/08 00:22:04;;;;;;;7.97;2.65;;;1.00;99.90;;;;;;5034867;28;20054;-84
2021/04/08 00:24:30;;;;;;;8.40;2.80;;;1.10;99.90;;;;;;5034306;28;20057;-84
2021/04/08 00:26:56;;;;;;;5.05;2.72;;;1.10;99.90;;;;;;5035629;28;20499;-84
2021/04/08 00:29:22;;;;;;;7.07;2.92;;;1.00;99.90;;;;;;5034098;28;20041;-85
2021/04/08 00:31:49;;;;;;;4.25;2.47;;;1.00;99.90;;;;;;5034424;28;20077;-84
2021/04/08 00:34:16;;;;;;;2.78;2.42;;;1.00;99.90;;;;;;5034376;28;20478;-85
2021/04/08 00:36:42;;;;;;;5.15;2.40;;;1.00;99.90;;;;;;5034736;28;20081;-84
2021/04/08 00:39:08;;;;;;;5.63;2.50;;;1.00;99.90;;;;;;5033948;28;20068;-84
2021/04/08 00:41:35;;;;;;;7.68;2.28;;;0.90;99.90;;;;;;5034134;28;20045;-84
2021/04/08 00:44:02;;;;;;;6.22;2.10;;;1.00;99.90;;;;;;5034687;28;20077;-84
2021/04/08 00:46:28;;;;;;;3.28;2.10;;;1.00;99.90;;;;;;5034019;28;20052;-84
2021/04/08 00:48:54;;;;;;;3.58;2.17;;;1.00;99.90;;;;;;5034203;28;20049;-84
2021/04/08 00:51:21;;;;;;;6.03;2.17;;;0.90;99.90;;;;;;5034457;28;20045;-84
2021/04/08 00:53:48;;;;;;;4.85;1.83;;;0.90;99.90;;;;;;5035038;28;20045;-84
2021/04/08 00:56:15;;;;;;;2.63;2.05;;;1.00;99.90;;;;;;5035008;28;20050;-84
2021/04/08 00:58:43;;;;;;;8.85;2.75;;;1.00;99.90;;;;;;5033997;28;20052;-84
2021/04/08 01:01:11;;;;;;;6.00;2.15;;;1.00;99.90;;;;;;5033116;28;20087;-84
2021/04/08 01:03:38;;;;;;;4.18;2.80;;;1.00;99.90;;;;;;5033166;28;20104;-84
2021/04/08 01:06:06;;;;;;;6.65;2.63;;;0.90;99.90;;;;;;5034218;28;20049;-84
2021/04/08 01:08:33;;;;;;;5.32;2.20;;;1.00;99.90;;;;;;5032544;28;20108;-83
2021/04/08 01:11:00;;;;;;;4.18;1.98;;;0.90;99.90;;;;;;5032743;28;20096;-83
2021/04/08 01:13:27;;;;;;;3.65;2.10;;;0.90;99.90;;;;;;5032422;28;20110;-84
2021/04/08 01:15:57;;;;;;;5.90;2.17;;;0.90;99.90;;;;;;5032662;28;20137;-83
2021/04/08 01:18:55;;;;;;;9.35;2.10;;;0.90;99.90;;;;;;5033698;28;20107;-84
2021/04/08 01:21:42;;;;;;;4.35;2.17;;;1.00;99.90;;;;;;5032233;28;20045;-83
2021/04/08 01:24:18;;;;;;;3.33;1.50;;;1.00;99.90;;;;;;5032519;28;20045;-83
2021/04/08 01:27:18;;;;;;;5.88;2.25;;;1.00;99.90;;;;;;5031982;28;20057;-83
2021/04/08 01:30:03;;;;;;;5.00;1.83;;;0.90;99.90;;;;;;5033944;28;20159;-83
2021/04/08 01:32:32;;;;;;;3.22;1.90;;;0.90;99.90;;;;;;5039129;28;20572;-83
2021/04/08 01:35:01;;;;;;;8.02;2.20;;;0.80;99.90;;;;;;5039856;28;20044;-84
2021/04/08 01:37:35;;;;;;;6.18;2.08;;;0.80;99.90;;;;;;5039931;28;20046;-84
2021/04/08 01:40:04;;;;;;;3.25;1.52;;;0.80;99.90;;;;;;5040398;28;20057;-84
2021/04/08 01:42:31;;;;;;;7.05;2.50;;;0.80;99.90;;;;;;5040410;28;20049;-84
2021/04/08 01:45:00;;;;;;;4.70;1.90;;;0.80;99.90;;;;;;5042091;28;20104;-84
2021/04/08 01:47:29;;;;;;;6.47;2.33;;;0.80;99.90;;;;;;5041053;28;20080;-84
2021/04/08 01:49:57;;;;;;;5.55;1.88;;;0.80;99.90;;;;;;5041340;28;20053;-83
2021/04/08 01:52:25;;;;;;;2.97;1.83;;;0.80;99.90;;;;;;5041230;28;20080;-84
2021/04/08 01:54:56;;;;;;;3.80;1.67;;;0.80;99.90;;;;;;5041519;28;20080;-84
2021/04/08 01:57:24;;;;;;;5.03;1.90;;;0.80;99.90;;;;;;5040847;28;20076;-84
2021/04/08 01:59:51;;;;;;;2.50;1.73;;;0.80;99.90;;;;;;5042128;28;20136;-84
2021/04/08 02:02:18;;;;;;;6.25;1.65;;;0.80;99.90;;;;;;5046531;28;20073;-83
2021/04/08 02:04:45;;;;;;;1.90;1.67;;;0.80;99.90;;;;;;5052858;28;20055;-83
2021/04/08 02:07:13;;;;;;;3.58;2.13;;;0.80;99.90;;;;;;5054237;28;20064;-83
2021/04/08 02:09:41;;;;;;;4.47;1.90;;;0.80;99.90;;;;;;5044880;28;20049;-83
2021/04/08 02:12:09;;;;;;;2.63;1.83;;;0.80;99.90;;;;;;5038778;28;20152;-83
2021/04/08 02:14:38;;;;;;;4.50;1.58;;;0.70;99.90;;;;;;5039094;28;20556;-84
2021/04/08 02:17:05;;;;;;;4.88;1.90;;;0.70;99.90;;;;;;5038644;28;20088;-83
2021/04/08 02:19:33;;;;;;;3.50;1.65;;;0.60;99.90;;;;;;5040541;28;20395;-83
2021/04/08 02:22:02;;;;;;;3.45;1.90;;;0.50;99.90;;;;;;5039313;28;20045;-83
2021/04/08 02:24:31;;;;;;;5.13;1.88;;;0.50;99.90;;;;;;5039188;28;20065;-83
2021/04/08 02:27:01;;;;;;;4.40;2.33;;;0.40;99.90;;;;;;5041397;28;20046;-84
2021/04/08 02:29:28;;;;;;;3.92;2.38;;;0.30;99.90;;;;;;5039939;28;20045;-83
2021/04/08 02:31:55;;;;;;;5.35;2.50;;;0.20;99.90;;;;;;5039347;28;20045;-83
2021/04/08 02:34:21;;;;;;;7.00;2.85;;;0.30;99.90;;;;;;5040344;28;20045;-82
2021/04/08 02:36:48;;;;;;;5.93;2.22;;;0.30;99.90;;;;;;5040700;28;20045;-83
2021/04/08 02:39:14;;;;;;;2.20;2.00;;;0.30;99.90;;;;;;5035667;28;20132;-82
2021/04/08 02:41:43;;;;;;;8.35;2.85;;;0.30;99.90;;;;;;5034556;28;20499;-82
2021/04/08 02:44:09;;;;;;;5.07;2.60;;;0.40;99.90;;;;;;5036007;28;20136;-82
2021/04/08 02:46:36;;;;;;;2.63;2.08;;;0.30;99.90;;;;;;5034501;28;20460;-82
2021/04/08 02:49:03;;;;;;;5.75;2.28;;;0.40;99.90;;;;;;5035819;28;20056;-82
2021/04/08 02:51:35;;;;;;;4.55;2.33;;;0.40;99.90;;;;;;5036280;28;20053;-82
2021/04/08 02:54:01;;;;;;;3.75;2.30;;;0.30;99.90;;;;;;5040632;28;20092;-82
2021/04/08 02:56:40;;;;;;;8.18;2.60;;;0.30;99.90;;;;;;5041246;28;20391;-83
2021/04/08 02:59:16;;;;;;;6.18;2.97;;;0.30;99.90;;;;;;5041072;28;20109;-83
2021/04/08 03:01:58;;;;;;;6.32;3.40;;;0.40;99.90;;;;;;5041627;28;20058;-83
2021/04/08 03:04:25;;;;;;;4.53;3.15;;;0.40;99.90;;;;;;5042414;28;20056;-83
2021/04/08 03:06:53;;;;;;;11.45;3.50;;;0.40;99.90;;;;;;5042134;28;20076;-83
2021/04/08 03:09:31;;;;;;;5.55;2.70;;;0.50;99.90;;;;;;5041320;28;20045;-83
2021/04/08 03:12:02;;;;;;;5.70;2.70;;;0.50;99.90;;;;;;5041915;28;20132;-83
2021/04/08 03:14:31;;;;;;;6.55;2.90;;;0.50;99.90;;;;;;5042386;28;20056;-83
2021/04/08 03:17:00;;;;;;;6.30;3.05;;;0.50;99.90;;;;;;5036866;28;20072;-84
2021/04/08 03:19:28;;;;;;;6.50;2.78;;;0.50;99.90;;;;;;5036852;28;20053;-83
2021/04/08 03:21:56;;;;;;;8.90;3.03;;;0.50;99.90;;;;;;5036461;28;20576;-84
2021/04/08 03:24:23;;;;;;;6.70;2.60;;;0.50;99.90;;;;;;5037037;28;20084;-84
2021/04/08 03:26:49;;;;;;;8.15;2.88;;;0.50;99.90;;;;;;5037115;28;20069;-84
2021/04/08 03:29:16;;;;;;;8.52;3.20;;;0.50;99.90;;;;;;5036314;28;20538;-84
2021/04/08 03:31:44;;;;;;;11.20;3.58;;;0.50;99.90;;;;;;5036402;28;20077;-84
2021/04/08 03:34:12;;;;;;;7.95;3.30;;;0.50;99.90;;;;;;5036798;28;20057;-84
2021/04/08 03:36:39;;;;;;;6.53;3.03;;;0.50;99.90;;;;;;5036366;28;20132;-84
2021/04/08 03:39:07;;;;;;;10.90;5.57;;;0.50;99.90;;;;;;5036127;28;20056;-83
2021/04/08 03:41:43;;;;;;;10.00;5.80;;;0.40;99.90;;;;;;5035442;28;20469;-83
2021/04/08 03:44:13;;;;;;;9.70;4.20;;;0.30;99.90;;;;;;5034784;28;20107;-82
2021/04/08 03:46:42;;;;;;;11.32;6.05;;;0.30;99.90;;;;;;5033529;28;20073;-82
2021/04/08 03:49:11;;;;;;;5.72;3.13;;;0.20;99.90;;;;;;5033392;28;20080;-82
2021/04/08 03:51:38;;;;;;;5.55;3.00;;;0.20;99.90;;;;;;5033067;28;20046;-82
2021/04/08 03:54:12;;;;;;;6.13;2.60;;;0.10;99.90;;;;;;5033261;28;20462;-82
2021/04/08 03:56:47;;;;;;;6.68;2.72;;;0.00;99.90;;;;;;5033535;28;20491;-83
2021/04/08 03:59:15;;;;;;;4.55;2.72;;;-0.10;99.90;;;;;;5033128;28;20479;-83
2021/04/08 04:01:44;;;;;;;8.07;3.53;;;-0.20;99.90;;;;;;5033233;28;20081;-81
2021/04/08 04:04:12;;;;;;;6.78;3.17;;;-0.20;99.90;;;;;;5033186;28;20057;-82
2021/04/08 04:06:41;;;;;;;8.75;3.30;;;-0.10;99.90;;;;;;5034400;28;20085;-83
2021/04/08 04:09:13;;;;;;;6.15;3.65;;;-0.10;99.90;;;;;;5033279;28;20564;-82
2021/04/08 04:11:42;;;;;;;11.90;3.35;;;-0.10;99.90;;;;;;5035955;28;20487;-82
2021/04/08 04:14:11;;;;;;;5.65;3.30;;;-0.10;99.90;;;;;;5035234;28;20049;-83
2021/04/08 04:16:40;;;;;;;9.13;3.95;;;-0.10;99.90;;;;;;5034296;28;20557;-83
2021/04/08 04:19:06;;;;;;;9.30;3.58;;;-0.10;99.90;;;;;;5035257;28;20091;-83
2021/04/08 04:21:33;;;;;;;4.72;2.80;;;-0.10;99.90;;;;;;5035792;28;20084;-82
2021/04/08 04:24:00;;;;;;;5.32;2.80;;;-0.10;99.90;;;;;;5035082;28;20056;-82
2021/04/08 04:26:26;;;;;;;9.15;4.13;;;-0.10;99.90;;;;;;5034997;28;20112;-82
2021/04/08 04:28:53;;;;;;;6.28;3.05;;;-0.10;99.90;;;;;;5034995;28;20058;-82
2021/04/08 04:31:19;;;;;;;7.72;3.25;;;0.00;99.90;;;;;;5036236;28;20080;-82
2021/04/08 04:33:46;;;;;;;8.02;2.90;;;0.00;99.90;;;;;;5039601;28;20133;-82
2021/04/08 04:36:12;;;;;;;6.53;3.08;;;-0.10;99.90;;;;;;5039767;28;20128;-82
2021/04/08 04:38:38;;;;;;;7.78;3.50;;;0.00;99.90;;;;;;5040462;28;20080;-82
2021/04/08 04:41:05;;;;;;;3.42;2.95;;;0.00;99.90;;;;;;5041377;28;20095;-82
2021/04/08 04:43:31;;;;;;;6.00;3.25;;;0.00;99.90;;;;;;5041870;28;20107;-82
2021/04/08 04:45:58;;;;;;;9.65;3.20;;;0.00;99.90;;;;;;5048086;28;20112;-82
2021/04/08 04:48:24;;;;;;;4.30;2.90;;;0.10;99.90;;;;;;5047379;28;20507;-82
2021/04/08 04:50:51;;;;;;;9.60;2.78;;;0.10;99.90;;;;;;5048136;28;20052;-81
2021/04/08 04:53:18;;;;;;;8.98;2.72;;;0.00;99.90;;;;;;5034939;28;20045;-81
2021/04/08 04:55:45;;;;;;;8.35;3.10;;;0.00;99.90;;;;;;5034798;28;20147;-82
2021/04/08 04:58:11;;;;;;;6.28;2.55;;;0.10;99.90;;;;;;5036094;28;20594;-81
2021/04/08 05:00:38;;;;;;;10.80;6.32;;;0.00;99.90;;;;;;5035129;28;20470;-81
2021/04/08 05:03:05;;;;;;;14.50;6.55;;;0.10;99.90;;;;;;5034713;28;20500;-81
2021/04/08 05:05:32;;;;;;;15.38;7.18;;;0.00;99.90;;;;;;5038817;28;20085;-82
2021/04/08 05:07:58;;;;;;;9.60;5.07;;;0.00;99.90;;;;;;5039063;28;20050;-81
2021/04/08 05:10:24;;;;;;;8.77;3.58;;;0.00;99.90;;;;;;5038921;28;20056;-82
2021/04/08 05:12:51;;;;;;;3.72;3.08;;;0.00;99.90;;;;;;5039698;28;20053;-82
2021/04/08 05:15:17;;;;;;;8.20;4.95;;;0.00;99.90;;;;;;5039000;28;20049;-81
2021/04/08 05:17:44;;;;;;;7.65;4.43;;;0.00;99.90;;;;;;5040507;28;20049;-82
2021/04/08 05:20:11;;;;;;;10.02;3.00;;;0.10;99.90;;;;;;5038960;28;20132;-81
2021/04/08 05:22:38;;;;;;;9.15;3.05;;;0.20;99.90;;;;;;5041010;28;20103;-82
2021/04/08 05:25:05;;;;;;;8.90;3.60;;;0.30;99.90;;;;;;5038694;28;20057;-81
2021/04/08 05:27:32;;;;;;;10.05;3.50;;;0.40;99.90;;;;;;5039131;28;20053;-82
2021/04/08 05:30:00;;;;;;;8.98;4.18;;;0.40;99.90;;;;;;5039941;28;20080;-82
2021/04/08 05:32:26;;;;;;;5.97;3.55;;;0.40;99.90;;;;;;5043084;28;20045;-82
2021/04/08 05:34:53;;;;;;;4.95;3.28;;;0.50;99.90;;;;;;5039998;28;20049;-81
2021/04/08 05:37:19;;;;;;;10.40;3.55;;;0.60;99.90;;;;;;5038052;28;20061;-81
2021/04/08 05:39:46;;;;;;;7.70;3.45;;;0.60;99.90;;;;;;5039672;28;20050;-81
2021/04/08 05:42:17;;;;;;;9.52;3.80;;;0.60;99.90;;;;;;5037753;28;20437;-81
2021/04/08 05:44:43;;;;;;;8.10;2.83;;;0.50;99.90;;;;;;5039297;28;20049;-81
2021/04/08 05:47:10;;;;;;;17.13;8.75;;;0.50;99.90;;;;;;5037591;28;20097;-82
2021/04/08 05:49:36;;;;;;;11.38;7.10;;;0.40;99.90;;;;;;5039586;28;20042;-82
2021/04/08 05:52:06;;;;;;;6.30;3.58;;;0.40;99.90;;;;;;5037573;28;20065;-84
2021/04/08 05:54:32;;;;;;;14.20;8.68;;;0.40;99.90;;;;;;5037720;28;20115;-84
2021/04/08 05:56:58;;;;;;;15.00;9.75;;;0.40;99.90;;;;;;5038024;28;20475;-84
2021/04/08 05:59:25;;;;;;;18.48;14.32;;;0.40;99.90;;;;;;5038784;28;20537;-83
2021/04/08 06:01:51;;;;;;;12.27;9.52;;;0.60;99.90;;;;;;5037532;28;20072;-84
2021/04/08 06:04:18;;;;;;;7.13;4.18;;;1.00;99.90;;;;;;5037040;28;20081;-84
2021/04/08 06:06:44;;;;;;;9.60;5.18;;;1.30;99.90;;;;;;5037143;28;20057;-84
2021/04/08 06:09:11;;;;;;;14.43;8.70;;;1.80;99.90;;;;;;5036614;28;20128;-84
2021/04/08 06:11:37;;;;;;;6.15;4.68;;;2.40;99.90;;;;;;5036670;28;20133;-85
2021/04/08 06:14:04;;;;;;;5.05;2.78;;;3.10;99.90;;;;;;5036686;28;20041;-85
2021/04/08 06:16:30;;;;;;;3.47;1.83;;;3.70;99.90;;;;;;5036023;28;20084;-85
2021/04/08 06:18:57;;;;;;;3.50;2.22;;;4.10;99.90;;;;;;5036528;28;20049;-86
2021/04/08 06:21:23;;;;;;;3.70;1.88;;;4.70;99.90;;;;;;5036140;28;20053;-84
2021/04/08 06:23:52;;;;;;;5.07;1.63;;;4.20;99.90;;;;;;5037719;28;20053;-85
2021/04/08 06:26:19;;;;;;;10.18;2.42;;;3.60;99.90;;;;;;5035833;28;20089;-85
2021/04/08 06:28:45;;;;;;;4.80;2.42;;;3.10;99.90;;;;;;5036950;28;20037;-86
2021/04/08 06:31:12;;;;;;;4.28;2.72;;;2.80;99.90;;;;;;5035581;28;20049;-85
2021/04/08 06:33:38;;;;;;;6.45;2.47;;;2.70;99.90;;;;;;5035487;28;20045;-86
2021/04/08 06:36:08;;;;;;;11.00;5.22;;;2.60;99.90;;;;;;5035735;28;20435;-86
2021/04/08 06:38:34;;;;;;;9.80;5.68;;;2.50;99.90;;;;;;5035605;28;20049;-86
2021/04/08 06:41:01;;;;;;;11.95;10.48;;;2.40;99.90;;;;;;5035657;28;20128;-86
2021/04/08 06:43:31;;;;;;;6.90;2.92;;;2.30;99.90;;;;;;5034795;28;20093;-86
2021/04/08 06:45:59;;;;;;;7.35;2.33;;;2.30;99.90;;;;;;5035061;28;20096;-85
2021/04/08 06:48:51;;;;;;;3.63;1.80;;;2.30;99.90;;;;;;5036248;28;20058;-86
2021/04/08 06:51:20;;;;;;;9.13;4.95;;;2.30;99.90;;;;;;5034482;28;20115;-84
2021/04/08 06:53:49;;;;;;;5.07;3.45;;;2.40;99.90;;;;;;5037287;28;20513;-85
2021/04/08 06:56:16;;;;;;;3.85;2.05;;;2.60;99.90;;;;;;5037609;28;20402;-85
2021/04/08 06:58:43;;;;;;;4.70;2.00;;;2.80;99.90;;;;;;5035539;28;20482;-86
2021/04/08 07:01:30;;;;;;;4.40;1.50;;;2.90;99.90;;;;;;5035648;28;20521;-86
2021/04/08 07:03:56;;;;;;;3.45;1.70;;;3.50;99.90;;;;;;5035605;28;20495;-86
2021/04/08 07:06:23;;;;;;;1.98;1.10;;;4.90;99.90;;;;;;5035833;28;20057;-85
2021/04/08 07:08:49;;;;;;;2.63;1.40;;;6.20;99.90;;;;;;5036359;28;20136;-86
2021/04/08 07:11:17;;;;;;;2.05;1.15;;;6.40;99.90;;;;;;5037679;28;20140;-83
2021/04/08 07:13:43;;;;;;;3.22;1.50;;;6.10;99.90;;;;;;5036056;28;20041;-84
2021/04/08 07:16:14;;;;;;;4.30;1.13;;;6.30;99.90;;;;;;5037539;28;20069;-84
2021/04/08 07:18:41;;;;;;;4.43;1.40;;;6.80;99.90;;;;;;5038036;28;20112;-86
2021/04/08 07:21:07;;;;;;;4.28;1.48;;;7.40;99.90;;;;;;5036370;28;20076;-86
2021/04/08 07:23:34;;;;;;;4.18;1.42;;;8.00;99.90;;;;;;5036559;28;20084;-86
2021/04/08 07:26:07;;;;;;;20.38;2.47;;;8.00;99.90;;;;;;5037222;28;20081;-85
2021/04/08 07:28:39;;;;;;;3.22;1.00;;;8.20;99.90;;;;;;5037586;28;20079;-86
2021/04/08 07:31:29;;;;;;;11.48;1.63;;;8.00;99.90;;;;;;5037874;28;20502;-84
2021/04/08 07:33:57;;;;;;;9.32;1.77;;;8.10;99.90;;;;;;5038404;28;20049;-86
2021/04/08 07:36:31;;;;;;;9.50;1.80;;;7.40;99.90;;;;;;5040505;28;20491;-86
2021/04/08 07:39:04;;;;;;;26.98;3.05;;;7.80;99.90;;;;;;5038257;28;20057;-86
2021/04/08 07:41:35;;;;;;;2.75;1.27;;;7.10;99.90;;;;;;5038178;28;20049;-85
2021/04/08 07:44:08;;;;;;;19.52;2.58;;;6.60;99.90;;;;;;5038664;28;20053;-86
2021/04/08 07:46:41;;;;;;;7.03;1.35;;;6.30;99.90;;;;;;5038559;28;20144;-86
2021/04/08 07:49:33;;;;;;;1.73;0.98;;;6.30;99.90;;;;;;5039926;28;20107;-84
2021/04/08 07:52:22;;;;;;;10.20;2.03;;;6.30;99.90;;;;;;5038143;28;20045;-85
2021/04/08 07:55:08;;;;;;;4.85;1.10;;;6.60;99.90;;;;;;5036131;28;20045;-85
2021/04/08 07:57:53;;;;;;;4.60;1.20;;;6.70;99.90;;;;;;5035856;28;20080;-85
2021/04/08 08:00:34;;;;;;;6.88;1.83;;;6.90;99.90;;;;;;5035545;28;20056;-85
2021/04/08 08:03:07;;;;;;;6.18;1.40;;;6.60;99.90;;;;;;5037483;28;20117;-86
2021/04/08 08:05:41;;;;;;;5.70;1.15;;;7.10;99.90;;;;;;5038600;28;20080;-85
2021/04/08 08:08:11;;;;;;;7.47;1.70;;;7.30;99.90;;;;;;5039611;28;20124;-85
2021/04/08 08:10:40;;;;;;;7.72;1.42;;;7.10;99.90;;;;;;5041620;28;20049;-86
2021/04/08 08:13:22;;;;;;;4.22;1.40;;;7.10;99.90;;;;;;5040673;28;20052;-86
2021/04/08 08:15:49;;;;;;;4.88;1.02;;;6.80;99.90;;;;;;5039812;28;20072;-86
2021/04/08 08:18:26;;;;;;;5.47;1.38;;;6.60;99.90;;;;;;5039612;28;20050;-86
2021/04/08 08:21:03;;;;;;;1.60;0.80;;;6.70;99.90;;;;;;5040145;28;20049;-85
2021/04/08 08:23:42;;;;;;;4.50;1.17;;;8.60;99.10;;;;;;5040775;28;20461;-86
2021/04/08 08:26:39;;;;;;;5.57;1.08;;;10.80;90.30;;;;;;5039068;28;20076;-84
2021/04/08 08:29:09;;;;;;;4.35;1.00;;;13.10;81.40;;;;;;5055483;28;20045;-83
2021/04/08 08:31:44;;;;;;;14.50;1.63;;;12.90;70.90;;;;;;5038266;28;20073;-82
2021/04/08 08:34:16;;;;;;;3.75;0.88;;;12.60;69.80;;;;;;5039655;28;20080;-82
2021/04/08 08:36:45;;;;;;;3.58;0.90;;;11.40;70.40;;;;;;5039219;28;20055;-82
2021/04/08 08:39:16;;;;;;;14.90;1.55;;;10.20;71.70;;;;;;5038541;28;20057;-82
2021/04/08 08:41:43;;;;;;;4.07;1.30;;;9.20;82.20;;;;;;5040433;28;20053;-83
2021/04/08 08:44:12;;;;;;;9.02;1.20;;;8.10;85.40;;;;;;5039036;28;20148;-82
2021/04/08 08:46:44;;;;;;;2.35;0.93;;;7.30;86.20;;;;;;5040109;28;20061;-82
2021/04/08 08:49:13;;;;;;;2.20;1.00;;;7.20;94.30;;;;;;5038601;28;20463;-82
2021/04/08 08:51:40;;;;;;;2.08;1.00;;;8.30;91.20;;;;;;5039497;28;20272;-81
2021/04/08 08:54:09;;;;;;;4.93;0.90;;;9.90;88.00;;;;;;5023733;28;20566;-83
2021/04/08 08:56:38;;;;;;;4.40;1.33;;;10.50;77.50;;;;;;5040193;28;20128;-82
2021/04/08 08:59:05;;;;;;;3.35;1.25;;;9.40;80.60;;;;;;5041229;28;20411;-82
2021/04/08 09:01:35;;;;;;;4.43;0.90;;;8.50;89.90;;;;;;5040012;28;20507;-82
2021/04/08 09:04:04;;;;;;;4.05;1.30;;;7.90;91.00;;;;;;5040533;28;20109;-82
2021/04/08 09:06:44;;;;;;;12.30;1.42;;;7.50;90.70;;;;;;5040194;28;20065;-82
2021/04/08 09:09:14;;;;;;;5.13;1.42;;;7.20;92.30;;;;;;5040919;28;20045;-81
2021/04/08 09:11:42;;;;;;;3.50;0.88;;;7.20;93.90;;;;;;5043750;28;20045;-81
2021/04/08 09:14:11;;;;;;;11.18;1.20;;;7.20;90.90;;;;;;5041596;28;20092;-81
2021/04/08 09:16:49;;;;;;;5.15;1.17;;;7.40;91.80;;;;;;5043187;28;20069;-82
2021/04/08 09:19:30;;;;;;;8.38;1.35;;;7.20;88.10;;;;;;5042322;28;20144;-81
2021/04/08 09:22:17;;;;;;;4.53;0.90;;;7.00;90.50;;;;;;5041170;28;20053;-81
2021/04/08 09:24:47;;;;;;;4.57;1.08;;;7.30;92.40;;;;;;5042353;28;20065;-82
2021/04/08 09:27:21;;;;;;;4.22;0.90;;;7.60;87.30;;;;;;5045857;28;20056;-80
2021/04/08 09:29:57;;;;;;;2.27;0.73;;;8.50;87.50;;;;;;5040965;28;20487;-80
2021/04/08 09:32:32;;;;;;;1.90;0.73;;;10.50;84.40;;;;;;5041926;28;20310;-82
2021/04/08 09:35:05;;;;;;;2.03;0.60;;;12.40;70.40;;;;;;5042961;28;20181;-81
2021/04/08 09:37:47;;;;;;;7.38;1.42;;;12.10;64.40;;;;;;5039197;28;20053;-81
2021/04/08 09:40:30;;;;;;;3.72;0.88;;;10.90;69.00;;;;;;5039255;28;20046;-80
2021/04/08 09:43:06;;;;;;;3.08;1.33;;;9.70;72.20;;;;;;5037138;28;20435;-80
2021/04/08 09:45:34;;;;;;;7.00;1.13;;;9.50;73.50;;;;;;5038684;28;20589;-80
2021/04/08 09:48:16;;;;;;;5.25;1.25;;;9.50;76.00;;;;;;5034001;28;20047;-81
2021/04/08 09:50:57;;;;;;;14.73;1.75;;;9.10;72.20;;;;;;5036061;28;20122;-80
2021/04/08 09:53:27;;;;;;;2.85;0.80;;;8.40;71.60;;;;;;5037465;28;20095;-81
2021/04/08 09:55:59;;;;;;;6.78;1.20;;;7.90;71.10;;;;;;5037625;28;20091;-81
2021/04/08 09:58:34;;;;;;;10.32;1.63;;;7.30;75.90;;;;;;5046052;28;20506;-82
2021/04/08 10:01:07;;;;;;;2.88;0.88;;;6.90;83.20;;;;;;5047308;28;20486;-81
2021/04/08 10:03:35;;;;;;;4.00;1.17;;;6.80;90.10;;;;;;5045830;28;20140;-80
2021/04/08 10:06:22;;;;;;;12.90;1.60;;;7.70;91.90;;;;;;5046491;28;20049;-80
2021/04/08 10:08:49;;;;;;;2.20;0.80;;;8.00;90.00;;;;;;5050157;28;20049;-81
2021/04/08 10:11:31;;;;;;;3.50;0.90;;;7.70;81.80;;;;;;5039916;28;20450;-81
2021/04/08 10:13:58;;;;;;;3.92;1.05;;;7.60;86.20;;;;;;5039662;28;20049;-81
2021/04/08 10:16:24;;;;;;;7.47;1.75;;;7.80;88.80;;;;;;5040879;28;20129;-81
2021/04/08 10:19:01;;;;;;;7.15;1.45;;;7.70;90.30;;;;;;5040035;28;20077;-81
2021/04/08 10:21:30;;;;;;;2.80;1.10;;;8.00;88.10;;;;;;5041475;28;20064;-80
2021/04/08 10:23:56;;;;;;;7.97;1.30;;;7.70;89.10;;;;;;5039670;28;20079;-80
2021/04/08 10:26:28;;;;;;;2.55;0.93;;;7.30;84.70;;;;;;5039663;28;20148;-83
2021/04/08 10:28:57;;;;;;;4.15;0.70;;;7.00;88.30;;;;;;5040043;28;20128;-80
2021/04/08 10:31:33;;;;;;;12.32;1.10;;;7.20;90.60;;;;;;5041742;28;20465;-82
2021/04/08 10:34:07;;;;;;;7.47;1.25;;;7.70;89.20;;;;;;5041105;28;20455;-81
2021/04/08 10:36:36;;;;;;;13.88;1.80;;;8.00;85.20;;;;;;5041789;28;20473;-81
2021/04/08 10:39:07;;;;;;;6.75;1.20;;;8.70;87.50;;;;;;5039414;28;20084;-81
2021/04/08 10:41:34;;;;;;;4.68;1.45;;;9.70;80.70;;;;;;5040396;28;20050;-81
2021/04/08 10:44:30;;;;;;;8.90;1.05;;;9.70;79.10;;;;;;5042087;28;20052;-84
2021/04/08 10:47:10;;;;;;;5.43;1.10;;;9.30;73.90;;;;;;5041457;28;20112;-83
2021/04/08 10:49:43;;;;;;;2.65;0.82;;;8.80;78.70;;;;;;5041948;28;20099;-83
2021/04/08 10:52:15;;;;;;;3.83;0.70;;;8.60;76.50;;;;;;5041893;28;20084;-84
2021/04/08 10:54:43;;;;;;;4.63;1.08;;;8.40;78.80;;;;;;5042918;28;20072;-83
2021/04/08 10:57:11;;;;;;;5.38;0.98;;;8.30;80.10;;;;;;5041065;28;20164;-83
2021/04/08 10:59:41;;;;;;;3.88;0.93;;;8.30;80.80;;;;;;5041276;28;20461;-83
2021/04/08 11:02:23;;;;;;;9.43;1.75;;;7.90;79.10;;;;;;5038883;28;20083;-83
2021/04/08 11:04:51;;;;;;;3.58;0.63;;;7.70;78.40;;;;;;5040491;28;20052;-83
2021/04/08 11:07:20;;;;;;;6.22;1.40;;;7.60;81.60;;;;;;5040410;28;20427;-82
2021/04/08 11:09:47;;;;;;;4.97;0.98;;;7.50;82.30;;;;;;5039663;28;20041;-83
2021/04/08 11:12:23;;;;;;;3.85;1.05;;;7.60;82.30;;;;;;5039379;28;20418;-83
2021/04/08 11:15:00;;;;;;;3.55;0.93;;;7.90;84.90;;;;;;5039467;28;20441;-83
2021/04/08 11:17:28;;;;;;;3.47;0.80;;;8.20;82.00;;;;;;5040557;28;20460;-83
2021/04/08 11:19:56;;;;;;;4.47;1.30;;;8.40;78.30;;;;;;5040357;28;20515;-83
2021/04/08 11:22:26;;;;;;;1.80;0.90;;;8.60;75.10;;;;;;5039932;28;20136;-83
2021/04/08 11:24:54;;;;;;;2.38;0.60;;;8.70;79.60;;;;;;5040316;28;20083;-83
2021/04/08 11:27:30;;;;;;;1.17;0.40;;;10.80;74.10;;;;;;5038752;28;20053;-83
2021/04/08 11:29:57;;;;;;;3.17;0.52;;;12.20;65.40;;;;;;5041615;28;20053;-83
2021/04/08 11:32:24;;;;;;;1.55;0.90;;;11.90;63.70;;;;;;5040518;28;20072;-82
2021/04/08 11:34:59;;;;;;;1.55;0.63;;;11.10;64.80;;;;;;5039378;28;20557;-84
2021/04/08 11:37:36;;;;;;;2.47;0.98;;;10.60;66.10;;;;;;5042423;28;20407;-82
2021/04/08 11:40:06;;;;;;;7.90;1.55;;;9.70;68.70;;;;;;5040028;28;20117;-83
2021/04/08 11:42:35;;;;;;;2.13;0.73;;;9.40;70.10;;;;;;5039548;28;20534;-83
2021/04/08 11:45:28;;;;;;;1.05;0.63;;;9.40;73.60;;;;;;5039071;28;20054;-83
2021/04/08 11:48:02;;;;;;;8.57;1.38;;;10.10;71.90;;;;;;5038757;28;20490;-83
2021/04/08 11:50:44;;;;;;;2.20;1.00;;;10.90;71.30;;;;;;5040240;28;20064;-83
2021/04/08 11:53:29;;;;;;;2.13;0.90;;;11.50;67.40;;;;;;5038559;28;20068;-83
2021/04/08 11:55:56;;;;;;;1.33;0.88;;;11.30;64.90;;;;;;5039900;28;20077;-83
2021/04/08 11:58:31;;;;;;;2.53;1.02;;;11.30;67.80;;;;;;5040315;28;20099;-81
2021/04/08 12:01:11;;;;;;;3.03;1.00;;;11.30;65.90;;;;;;5040607;28;20057;-83
2021/04/08 12:03:42;;;;;;;6.28;1.25;;;11.20;67.70;;;;;;5039745;28;20049;-83
2021/04/08 12:06:13;;;;;;;3.67;1.10;;;11.00;67.30;;;;;;5038227;28;20148;-83
2021/04/08 12:08:52;;;;;;;5.13;1.00;;;10.20;67.10;;;;;;5039886;28;20380;-84
2021/04/08 12:11:20;;;;;;;3.13;0.95;;;9.90;70.00;;;;;;5040884;28;20054;-83
2021/04/08 12:14:13;;;;;;;3.28;1.00;;;9.50;70.80;;;;;;5042107;28;20037;-84
2021/04/08 12:16:39;;;;;;;2.75;1.00;;;9.20;71.10;;;;;;5037074;28;20045;-83
2021/04/08 12:19:06;;;;;;;2.90;0.88;;;9.10;71.80;;;;;;5036752;28;20049;-81
2021/04/08 12:21:34;;;;;;;2.78;1.10;;;9.20;72.10;;;;;;5034380;28;20119;-81
2021/04/08 12:24:09;;;;;;;1.92;1.10;;;9.60;74.20;;;;;;5034538;28;20099;-82
2021/04/08 12:26:38;;;;;;;2.88;1.63;;;9.90;70.80;;;;;;5034031;28;20570;-82
2021/04/08 12:29:05;;;;;;;4.00;1.30;;;9.60;71.20;;;;;;5034262;28;20041;-82
2021/04/08 12:31:50;;;;;;;8.75;1.70;;;9.40;70.60;;;;;;5035502;28;20148;-82
2021/04/08 12:34:17;;;;;;;2.97;0.93;;;9.00;72.70;;;;;;5029423;28;20470;-82
2021/04/08 12:36:47;;;;;;;4.38;1.20;;;8.70;73.90;;;;;;5035984;28;20506;-82
2021/04/08 12:39:14;;;;;;;5.35;1.45;;;8.50;75.20;;;;;;5035406;28;20099;-82
2021/04/08 12:41:41;;;;;;;4.13;1.45;;;8.40;75.80;;;;;;5034796;28;20050;-82
2021/04/08 12:44:08;;;;;;;3.00;0.90;;;8.20;76.30;;;;;;5034083;28;20581;-81
2021/04/08 12:46:37;;;;;;;3.70;0.90;;;8.20;75.90;;;;;;5034008;28;20132;-82
2021/04/08 12:49:04;;;;;;;3.63;0.75;;;8.20;78.90;;;;;;5034262;28;20050;-82
2021/04/08 12:51:32;;;;;;;4.78;1.65;;;8.70;76.70;;;;;;5034000;28;20123;-82
2021/04/08 12:53:58;;;;;;;3.25;0.95;;;9.20;76.30;;;;;;5032476;28;20128;-82
2021/04/08 12:56:25;;;;;;;4.07;1.23;;;9.60;71.60;;;;;;5033131;28;20487;-80
2021/04/08 12:58:52;;;;;;;1.77;1.30;;;9.50;75.80;;;;;;5034121;28;20077;-79
2021/04/08 13:01:18;;;;;;;0.85;0.80;;;9.60;74.50;;;;;;5033927;28;20107;-82
2021/04/08 13:03:45;;;;;;;0.90;0.90;;;9.50;70.40;;;;;;5033501;28;20049;-82
2021/04/08 13:06:12;;;;;;;4.28;1.38;;;9.00;73.40;;;;;;5034592;28;20077;-83
2021/04/08 13:08:48;;;;;;;2.90;1.15;;;9.00;75.30;;;;;;5033423;28;20136;-82
2021/04/08 13:11:15;;;;;;;1.40;0.93;;;9.00;74.20;;;;;;5033973;28;20046;-83